createdAt,value
2018-05-12T00:00:37.273Z,16.16
2018-05-12T00:03:05.394Z,16.22
2018-05-12T00:18:27.899Z,16.07
2018-05-12T00:20:55.393Z,16.00
2018-05-12T00:23:22.870Z,15.90
2018-05-12T00:25:50.359Z,15.82
2018-05-12T00:28:17.863Z,15.75
2018-05-12T00:30:45.377Z,15.73
2018-05-12T00:33:12.858Z,15.74
2018-05-12T00:35:40.345Z,15.70
2018-05-12T00:38:07.826Z,15.65
2018-05-12T00:40:35.315Z,15.66
2018-05-12T00:43:02.822Z,15.74
2018-05-12T00:45:30.307Z,15.83
2018-05-12T00:47:57.870Z,15.84
2018-05-12T00:50:25.345Z,15.83
2018-05-12T00:52:52.830Z,15.75
2018-05-12T00:55:20.307Z,15.71
2018-05-12T00:57:47.811Z,15.63
2018-05-12T01:00:15.281Z,15.73
2018-05-12T01:02:42.741Z,15.84
2018-05-12T01:05:10.211Z,15.88
2018-05-12T01:07:37.756Z,15.87
2018-05-12T01:10:05.258Z,15.96
2018-05-12T01:12:32.744Z,15.97
2018-05-12T01:15:00.235Z,15.96
2018-05-12T01:17:27.715Z,15.89
2018-05-12T01:19:55.374Z,15.84
2018-05-12T01:22:22.855Z,15.78
2018-05-12T01:24:50.313Z,15.82
2018-05-12T01:27:17.798Z,15.82
2018-05-12T01:29:45.350Z,15.75
2018-05-12T01:32:12.819Z,15.79
2018-05-12T01:34:40.298Z,15.71
2018-05-12T01:37:07.772Z,15.57
2018-05-12T01:39:35.452Z,15.52
2018-05-12T01:42:02.924Z,15.56
2018-05-12T01:44:30.412Z,15.60
2018-05-12T01:46:57.865Z,15.62
2018-05-12T01:49:25.334Z,15.55
2018-05-12T01:51:52.803Z,15.56
2018-05-12T01:54:20.263Z,15.45
2018-05-12T01:56:47.744Z,15.34
2018-05-12T01:59:15.256Z,15.23
2018-05-12T02:01:42.775Z,15.29
2018-05-12T02:04:10.343Z,15.24
2018-05-12T02:06:37.810Z,15.23
2018-05-12T02:09:05.281Z,15.15
2018-05-12T02:11:32.758Z,15.15
2018-05-12T02:14:00.213Z,15.18
2018-05-12T02:16:27.704Z,15.14
2018-05-12T02:18:55.170Z,15.08
2018-05-12T02:21:22.634Z,15.05
2018-05-12T02:23:50.123Z,15.00
2018-05-12T02:26:17.598Z,15.00
2018-05-12T02:28:45.050Z,14.94
2018-05-12T02:31:12.535Z,14.94
2018-05-12T02:33:40.022Z,14.95
2018-05-12T02:36:07.604Z,14.94
2018-05-12T02:38:35.075Z,14.92
2018-05-12T02:41:02.552Z,14.97
2018-05-12T02:43:30.030Z,14.93
2018-05-12T02:45:57.507Z,14.89
2018-05-12T02:48:25.009Z,14.88
2018-05-12T02:50:52.478Z,14.93
2018-05-12T02:53:19.938Z,14.94
2018-05-12T02:55:47.411Z,14.91
2018-05-12T02:58:14.900Z,14.84
2018-05-12T03:00:48.122Z,14.82
2018-05-12T03:03:15.586Z,14.78
2018-05-12T03:05:43.066Z,14.89
2018-05-12T03:08:10.564Z,14.90
2018-05-12T03:10:38.036Z,14.89
2018-05-12T03:13:05.498Z,14.91
2018-05-12T03:15:32.975Z,14.81
2018-05-12T03:18:00.450Z,14.72
2018-05-12T03:20:27.942Z,14.65
2018-05-12T03:22:55.479Z,14.58
2018-05-12T03:25:22.976Z,14.60
2018-05-12T03:27:50.440Z,14.58
2018-05-12T03:30:17.941Z,14.58
2018-05-12T03:32:45.429Z,14.54
2018-05-12T03:35:13.065Z,14.52
2018-05-12T03:37:40.537Z,14.51
2018-05-12T03:40:08.016Z,14.48
2018-05-12T03:42:35.476Z,14.49
2018-05-12T03:45:02.955Z,14.50
2018-05-12T03:47:30.431Z,14.52
2018-05-12T03:49:57.882Z,14.58
2018-05-12T03:52:25.369Z,14.65
2018-05-12T03:54:52.842Z,14.70
2018-05-12T03:57:20.294Z,14.74
2018-05-12T03:59:47.776Z,14.80
2018-05-12T04:02:15.239Z,14.87
2018-05-12T04:04:54.510Z,14.97
2018-05-12T04:07:33.680Z,15.04
2018-05-12T04:10:13.891Z,15.13
2018-05-12T04:12:41.342Z,15.29
2018-05-12T04:15:08.806Z,15.39
2018-05-12T04:17:36.280Z,15.48
2018-05-12T04:20:03.803Z,15.56
2018-05-12T04:22:31.286Z,15.60
2018-05-12T04:24:58.753Z,15.68
2018-05-12T04:27:26.250Z,15.75
2018-05-12T04:29:53.762Z,15.79
2018-05-12T04:32:21.219Z,15.88
2018-05-12T04:34:48.684Z,15.93
2018-05-12T04:37:16.167Z,16.04
2018-05-12T04:39:43.679Z,16.11
2018-05-12T04:42:11.163Z,16.16
2018-05-12T04:44:38.762Z,16.26
2018-05-12T04:47:06.169Z,16.38
2018-05-12T04:49:33.652Z,16.41
2018-05-12T04:52:01.197Z,16.45
2018-05-12T04:54:28.657Z,16.51
2018-05-12T04:56:56.403Z,16.63
2018-05-12T04:59:23.904Z,16.74
2018-05-12T05:01:51.360Z,16.88
2018-05-12T05:04:18.837Z,16.97
2018-05-12T05:06:46.306Z,17.02
2018-05-12T05:09:13.794Z,17.12
2018-05-12T05:11:41.353Z,17.29
2018-05-12T05:14:08.807Z,17.37
2018-05-12T05:16:36.281Z,17.41
2018-05-12T05:19:03.761Z,17.53
2018-05-12T05:21:31.231Z,17.56
2018-05-12T05:23:58.734Z,17.65
2018-05-12T05:26:26.217Z,17.73
2018-05-12T05:28:53.679Z,17.78
2018-05-12T05:31:21.191Z,17.90
2018-05-12T05:33:48.670Z,18.09
2018-05-12T05:36:16.150Z,18.16
2018-05-12T05:38:43.639Z,18.26
2018-05-12T05:41:11.151Z,18.45
2018-05-12T05:43:38.616Z,18.52
2018-05-12T05:46:06.133Z,18.62
2018-05-12T05:48:33.600Z,18.67
2018-05-12T05:51:01.128Z,18.72
2018-05-12T05:53:28.610Z,18.88
2018-05-12T05:55:56.083Z,18.83
2018-05-12T05:58:23.545Z,18.91
2018-05-12T06:00:51.026Z,19.03
2018-05-12T06:03:18.486Z,19.07
2018-05-12T06:05:45.968Z,19.21
2018-05-12T06:08:13.496Z,19.22
2018-05-12T06:10:40.985Z,19.27
2018-05-12T06:13:08.444Z,19.40
2018-05-12T06:15:35.928Z,19.59
2018-05-12T06:18:03.441Z,19.74
2018-05-12T06:20:30.883Z,19.69
2018-05-12T06:22:58.347Z,19.76
2018-05-12T06:25:25.825Z,19.97
2018-05-12T06:27:53.365Z,20.07
2018-05-12T06:30:20.794Z,20.11
2018-05-12T06:32:48.272Z,20.20
2018-05-12T06:35:15.732Z,20.32
2018-05-12T06:37:43.188Z,20.46
2018-05-12T06:40:10.650Z,20.61
2018-05-12T06:42:38.130Z,20.71
2018-05-12T06:45:05.594Z,20.73
2018-05-12T06:47:33.103Z,20.70
2018-05-12T06:50:00.567Z,20.73
2018-05-12T06:52:28.176Z,20.66
2018-05-12T06:54:55.674Z,20.80
2018-05-12T06:57:23.151Z,21.04
2018-05-12T06:59:50.624Z,21.21
2018-05-12T07:02:18.118Z,21.27
2018-05-12T07:04:45.697Z,21.28
2018-05-12T07:07:13.174Z,21.32
2018-05-12T07:09:40.644Z,21.32
2018-05-12T07:12:08.195Z,21.33
2018-05-12T07:14:35.675Z,21.36
2018-05-12T07:17:03.122Z,21.44
2018-05-12T07:19:30.684Z,21.52
2018-05-12T07:21:58.078Z,21.64
2018-05-12T07:24:26.023Z,21.76
2018-05-12T07:26:53.607Z,21.84
2018-05-12T07:29:21.099Z,21.90
2018-05-12T07:31:48.565Z,22.02
2018-05-12T07:34:16.045Z,22.16
2018-05-12T07:36:43.572Z,22.19
2018-05-12T07:39:11.062Z,22.10
2018-05-12T07:41:39.631Z,21.99
2018-05-12T07:44:07.103Z,22.09
2018-05-12T07:46:34.578Z,22.23
2018-05-12T07:49:02.058Z,22.27
2018-05-12T07:51:29.562Z,22.16
2018-05-12T07:53:57.024Z,22.21
2018-05-12T07:56:24.483Z,22.29
2018-05-12T07:58:52.358Z,22.31
2018-05-12T08:01:20.154Z,22.34
2018-05-12T08:03:48.160Z,22.44
2018-05-12T08:06:15.683Z,22.42
2018-05-12T08:08:43.706Z,22.45
2018-05-12T08:11:11.173Z,22.61
2018-05-12T08:13:38.642Z,22.66
2018-05-12T08:16:06.164Z,22.70
2018-05-12T08:18:33.730Z,22.81
2018-05-12T08:21:02.753Z,22.90
2018-05-12T08:23:30.485Z,23.01
2018-05-12T08:25:58.180Z,23.17
2018-05-12T08:28:25.649Z,23.27
2018-05-12T08:30:53.281Z,23.23
2018-05-12T08:33:20.921Z,23.23
2018-05-12T08:35:48.441Z,23.29
2018-05-12T08:38:16.009Z,23.39
2018-05-12T08:40:44.143Z,23.31
2018-05-12T08:43:11.635Z,23.45
2018-05-12T08:45:39.163Z,23.51
2018-05-12T08:48:06.727Z,23.51
2018-05-12T08:50:34.300Z,23.72
2018-05-12T08:53:01.852Z,23.87
2018-05-12T08:55:29.459Z,23.98
2018-05-12T08:57:56.972Z,24.09
2018-05-12T09:00:24.449Z,23.94
2018-05-12T09:02:51.979Z,23.80
2018-05-12T09:05:20.120Z,24.03
2018-05-12T09:07:47.633Z,24.17
2018-05-12T09:10:15.143Z,24.46
2018-05-12T09:12:42.706Z,24.51
2018-05-12T09:15:10.247Z,24.63
2018-05-12T09:17:37.732Z,24.57
2018-05-12T09:20:06.881Z,24.95
2018-05-12T09:22:34.540Z,25.10
2018-05-12T09:25:02.235Z,25.13
2018-05-12T09:27:30.815Z,25.35
2018-05-12T09:29:58.305Z,25.46
2018-05-12T09:32:25.821Z,25.52
2018-05-12T09:34:53.325Z,25.68
2018-05-12T09:37:20.862Z,25.82
2018-05-12T09:39:48.316Z,25.98
2018-05-12T09:42:15.808Z,26.09
2018-05-12T09:44:43.317Z,26.22
2018-05-12T09:47:10.810Z,26.37
2018-05-12T09:49:38.285Z,26.20
2018-05-12T09:52:05.800Z,26.50
2018-05-12T09:54:33.270Z,26.43
2018-05-12T09:57:02.516Z,26.10
2018-05-12T09:59:29.975Z,26.14
2018-05-12T10:01:57.521Z,26.31
2018-05-12T10:04:25.034Z,26.34
2018-05-12T10:06:52.503Z,26.28
2018-05-12T10:09:20.068Z,26.54
2018-05-12T10:11:47.611Z,26.71
2018-05-12T10:14:15.149Z,26.78
2018-05-12T10:16:42.660Z,27.02
2018-05-12T10:19:10.156Z,26.94
2018-05-12T10:21:38.793Z,26.68
2018-05-12T10:24:06.315Z,26.76
2018-05-12T10:26:33.862Z,26.85
2018-05-12T10:29:01.355Z,27.00
2018-05-12T10:31:28.847Z,27.21
2018-05-12T10:33:56.337Z,27.52
2018-05-12T10:36:23.799Z,27.70
2018-05-12T10:38:51.339Z,27.89
2018-05-12T10:41:18.818Z,27.66
2018-05-12T10:43:46.320Z,27.70
2018-05-12T10:46:13.838Z,27.75
2018-05-12T10:48:41.330Z,27.66
2018-05-12T10:51:08.799Z,27.53
2018-05-12T10:53:40.302Z,27.82
2018-05-12T10:56:07.776Z,28.03
2018-05-12T10:58:35.246Z,28.39
2018-05-12T11:01:02.740Z,28.40
2018-05-12T11:03:30.210Z,28.52
2018-05-12T11:05:57.686Z,28.83
2018-05-12T11:08:25.183Z,29.11
2018-05-12T11:10:52.682Z,29.04
2018-05-12T11:13:20.174Z,28.89
2018-05-12T11:15:47.753Z,29.00
2018-05-12T11:18:15.134Z,29.31
2018-05-12T11:20:42.639Z,29.32
2018-05-12T11:23:10.124Z,29.75
2018-05-12T11:25:37.617Z,29.66
2018-05-12T11:28:05.087Z,29.62
2018-05-12T11:30:32.578Z,29.54
2018-05-12T11:33:00.039Z,29.39
2018-05-12T11:35:27.811Z,29.36
2018-05-12T11:37:55.273Z,29.36
2018-05-12T11:40:22.730Z,28.94
2018-05-12T11:42:50.215Z,28.99
2018-05-12T11:45:17.694Z,29.14
2018-05-12T11:47:45.175Z,29.18
2018-05-12T11:50:12.768Z,29.26
2018-05-12T11:52:40.188Z,29.15
2018-05-12T11:55:08.259Z,28.78
2018-05-12T11:57:35.751Z,28.70
2018-05-12T12:00:03.233Z,28.48
2018-05-12T12:02:30.757Z,28.71
2018-05-12T12:04:58.193Z,29.23
2018-05-12T12:07:25.695Z,29.22
2018-05-12T12:09:53.162Z,28.71
2018-05-12T12:12:20.684Z,28.50
2018-05-12T12:14:48.164Z,28.61
2018-05-12T12:17:16.274Z,28.42
2018-05-12T12:19:43.763Z,28.40
2018-05-12T12:22:11.322Z,28.44
2018-05-12T12:24:38.831Z,28.38
2018-05-12T12:27:06.727Z,28.26
2018-05-12T12:29:34.234Z,28.29
2018-05-12T12:32:01.715Z,28.55
2018-05-12T12:34:29.185Z,29.01
2018-05-12T12:36:58.084Z,29.69
2018-05-12T12:39:25.563Z,30.19
2018-05-12T12:41:53.025Z,30.00
2018-05-12T12:44:20.515Z,29.84
2018-05-12T12:46:47.991Z,29.72
2018-05-12T12:49:15.508Z,29.67
2018-05-12T12:51:43.076Z,30.01
2018-05-12T12:54:10.468Z,30.65
2018-05-12T12:56:37.964Z,31.54
2018-05-12T12:59:05.765Z,32.14
2018-05-12T13:01:33.281Z,32.56
2018-05-12T13:04:00.736Z,32.08
2018-05-12T13:06:28.215Z,31.77
2018-05-12T13:08:55.690Z,32.02
2018-05-12T13:11:23.203Z,32.39
2018-05-12T13:26:45.698Z,31.94
2018-05-12T13:29:13.175Z,31.66
2018-05-12T13:31:40.647Z,31.33
2018-05-12T13:34:08.125Z,31.01
2018-05-12T13:36:35.664Z,30.76
2018-05-12T13:39:03.185Z,30.37
2018-05-12T13:41:30.672Z,30.04
2018-05-12T13:43:58.128Z,29.69
2018-05-12T13:46:25.736Z,29.33
2018-05-12T13:48:53.563Z,29.03
2018-05-12T13:51:23.110Z,28.74
2018-05-12T13:53:50.631Z,28.55
2018-05-12T13:56:18.320Z,28.30
2018-05-12T13:58:45.774Z,28.33
2018-05-12T14:01:13.238Z,28.22
2018-05-12T14:03:40.711Z,28.13
2018-05-12T14:06:08.204Z,28.06
2018-05-12T14:08:35.739Z,28.14
2018-05-12T14:11:03.232Z,28.29
2018-05-12T14:13:30.771Z,28.36
2018-05-12T14:15:58.179Z,28.37
2018-05-12T14:18:26.294Z,28.73
2018-05-12T14:20:53.801Z,29.05
2018-05-12T14:23:21.274Z,29.24
2018-05-12T14:25:48.850Z,29.67
2018-05-12T14:28:16.359Z,29.85
2018-05-12T14:30:43.819Z,30.04
2018-05-12T14:33:11.325Z,30.13
2018-05-12T14:35:38.920Z,29.91
2018-05-12T14:38:06.417Z,29.67
2018-05-12T14:40:33.884Z,30.04
2018-05-12T14:43:01.452Z,30.89
2018-05-12T14:45:28.924Z,31.69
2018-05-12T14:47:56.480Z,31.79
2018-05-12T14:50:23.950Z,31.57
2018-05-12T14:52:51.452Z,30.87
2018-05-12T14:55:18.939Z,30.82
2018-05-12T14:57:46.408Z,31.08
2018-05-12T15:00:13.929Z,31.17
2018-05-12T15:02:41.609Z,31.38
2018-05-12T15:05:09.091Z,31.63
2018-05-12T15:07:36.563Z,31.12
2018-05-12T15:10:04.047Z,30.92
2018-05-12T15:12:31.513Z,30.45
2018-05-12T15:14:59.053Z,30.33
2018-05-12T15:17:26.540Z,30.55
2018-05-12T15:19:54.025Z,31.07
2018-05-12T15:22:21.508Z,31.55
2018-05-12T15:24:49.006Z,31.74
2018-05-12T15:27:16.485Z,32.31
2018-05-12T15:29:43.969Z,32.77
2018-05-12T15:32:11.472Z,32.96
2018-05-12T15:34:38.934Z,32.71
2018-05-12T15:37:06.434Z,32.52
2018-05-12T15:39:33.915Z,32.74
2018-05-12T15:42:01.370Z,32.71
2018-05-12T15:44:28.860Z,33.01
2018-05-12T15:46:56.312Z,33.72
2018-05-12T15:49:23.781Z,34.23
2018-05-12T15:51:51.245Z,35.16
2018-05-12T15:54:18.726Z,35.80
2018-05-12T15:56:46.531Z,37.18
2018-05-12T15:59:14.006Z,37.58
2018-05-12T16:01:41.495Z,38.50
2018-05-12T16:04:08.958Z,38.05
2018-05-12T16:06:36.420Z,37.60
2018-05-12T16:09:05.094Z,37.65
2018-05-12T16:11:32.562Z,38.76
2018-05-12T16:14:00.035Z,39.22
2018-05-12T16:16:27.511Z,39.11
2018-05-12T16:18:54.970Z,38.99
2018-05-12T16:21:22.423Z,39.60
2018-05-12T16:23:49.913Z,40.38
2018-05-12T16:26:17.375Z,39.64
2018-05-12T16:28:44.866Z,38.64
2018-05-12T16:31:12.436Z,38.77
2018-05-12T16:33:39.884Z,38.27
2018-05-12T16:36:07.407Z,38.53
2018-05-12T16:38:34.891Z,37.18
2018-05-12T16:41:02.423Z,37.28
2018-05-12T16:43:29.890Z,37.38
2018-05-12T16:45:57.355Z,37.26
2018-05-12T16:48:24.855Z,36.92
2018-05-12T16:50:52.466Z,36.39
2018-05-12T16:53:19.897Z,35.80
2018-05-12T16:55:47.377Z,35.03
2018-05-12T16:58:14.857Z,33.95
2018-05-12T17:00:42.327Z,33.71
2018-05-12T17:03:09.884Z,33.17
2018-05-12T17:05:37.573Z,33.04
2018-05-12T17:08:05.039Z,33.15
2018-05-12T17:10:32.537Z,32.65
2018-05-12T17:13:00.649Z,32.61
2018-05-12T17:15:28.130Z,32.60
2018-05-12T17:17:56.163Z,32.04
2018-05-12T17:20:23.629Z,31.17
2018-05-12T17:22:51.129Z,30.70
2018-05-12T17:25:18.610Z,30.54
2018-05-12T17:27:46.091Z,29.89
2018-05-12T17:30:13.556Z,29.28
2018-05-12T17:32:41.021Z,28.75
2018-05-12T17:35:08.504Z,28.32
2018-05-12T17:37:35.963Z,28.03
2018-05-12T17:40:03.454Z,27.55
2018-05-12T17:42:30.947Z,27.05
2018-05-12T17:44:58.471Z,26.66
2018-05-12T17:47:25.938Z,26.30
2018-05-12T17:49:53.429Z,25.92
2018-05-12T17:52:20.988Z,25.50
2018-05-12T17:54:48.506Z,25.20
2018-05-12T17:57:15.987Z,25.01
2018-05-12T17:59:43.453Z,24.74
2018-05-12T18:02:10.963Z,24.44
2018-05-12T18:04:38.427Z,24.24
2018-05-12T18:07:05.927Z,24.07
2018-05-12T18:09:34.003Z,23.85
2018-05-12T18:12:01.482Z,23.62
2018-05-12T18:14:28.967Z,23.42
2018-05-12T18:16:56.433Z,23.26
2018-05-12T18:19:23.891Z,23.13
2018-05-12T18:21:51.376Z,22.97
2018-05-12T18:24:18.844Z,22.79
2018-05-12T18:26:46.324Z,22.64
2018-05-12T18:29:13.810Z,22.52
2018-05-12T18:31:41.268Z,22.36
2018-05-12T18:34:08.740Z,22.26
2018-05-12T18:36:36.232Z,22.18
2018-05-12T18:39:03.739Z,22.11
2018-05-12T18:41:31.199Z,22.05
2018-05-12T18:43:58.659Z,22.01
2018-05-12T18:46:26.140Z,21.95
2018-05-12T18:48:53.618Z,21.93
2018-05-12T18:51:22.071Z,21.80
2018-05-12T18:53:49.607Z,21.75
2018-05-12T18:56:18.618Z,21.69
2018-05-12T18:58:46.101Z,21.65
2018-05-12T19:01:13.638Z,21.54
2018-05-12T19:03:41.176Z,21.49
2018-05-12T19:06:08.731Z,21.42
2018-05-12T19:08:36.250Z,21.45
2018-05-12T19:11:03.778Z,21.45
2018-05-12T19:13:31.268Z,21.44
2018-05-12T19:15:58.814Z,21.36
2018-05-12T19:18:27.268Z,21.38
2018-05-12T19:20:54.789Z,21.36
2018-05-12T19:23:22.289Z,21.33
2018-05-12T19:25:49.810Z,21.26
2018-05-12T19:28:17.479Z,21.21
2018-05-12T19:30:44.969Z,21.19
2018-05-12T19:33:12.494Z,21.16
2018-05-12T19:35:39.992Z,21.23
2018-05-12T19:38:07.525Z,21.17
2018-05-12T19:40:35.145Z,21.07
2018-05-12T19:43:02.640Z,21.02
2018-05-12T19:45:30.360Z,21.00
2018-05-12T19:47:58.308Z,21.02
2018-05-12T19:50:26.122Z,21.02
2018-05-12T19:52:53.650Z,21.06
2018-05-12T19:55:21.929Z,21.00
2018-05-12T20:10:52.665Z,20.67
2018-05-12T20:13:21.095Z,20.52
2018-05-12T20:15:48.677Z,20.39
2018-05-12T20:18:16.263Z,20.30
2018-05-12T20:20:43.788Z,20.23
2018-05-12T20:23:11.405Z,20.17
2018-05-12T20:25:39.001Z,20.12
2018-05-12T20:28:06.419Z,20.06
2018-05-12T20:30:34.387Z,19.97
2018-05-12T20:33:02.282Z,19.89
2018-05-12T20:48:31.118Z,19.40
2018-05-12T20:50:58.682Z,19.35
2018-05-12T20:53:26.250Z,19.31
2018-05-12T20:55:53.806Z,19.31
2018-05-12T20:58:21.360Z,19.30
2018-05-12T21:00:48.939Z,19.33
2018-05-12T21:03:16.456Z,19.26
2018-05-12T21:05:44.016Z,19.21
2018-05-12T21:08:11.559Z,19.22
2018-05-12T21:10:39.062Z,19.19
2018-05-12T21:13:06.566Z,19.18
2018-05-12T21:15:34.065Z,19.25
2018-05-12T21:18:01.571Z,19.23
2018-05-12T21:20:29.073Z,19.21
2018-05-12T21:23:03.413Z,19.07
2018-05-12T21:25:31.204Z,18.98
2018-05-12T21:27:58.685Z,18.91
2018-05-12T21:30:26.212Z,18.91
2018-05-12T21:32:53.712Z,18.86
2018-05-12T21:35:21.308Z,18.80
2018-05-12T21:37:48.848Z,18.72
2018-05-12T21:40:16.359Z,18.70
2018-05-12T21:42:43.900Z,18.62
2018-05-12T21:45:12.315Z,18.64
2018-05-12T21:47:39.963Z,18.68
2018-05-12T21:50:07.498Z,18.89
2018-05-12T21:52:35.120Z,18.85
2018-05-12T21:55:02.631Z,18.90
2018-05-12T21:57:30.127Z,18.90
2018-05-12T22:02:31.284Z,18.72
2018-05-12T22:04:58.814Z,18.66
2018-05-12T22:07:26.395Z,18.55
2018-05-12T22:09:53.903Z,18.45
2018-05-12T22:12:21.476Z,18.41
2018-05-12T22:14:48.986Z,18.36
2018-05-12T22:17:16.562Z,18.31
2018-05-12T22:19:44.089Z,18.27
2018-05-12T22:22:11.639Z,18.29
2018-05-12T22:24:39.169Z,18.30
2018-05-12T22:27:06.656Z,18.31
2018-05-12T22:29:34.301Z,18.36
2018-05-12T22:32:01.804Z,18.38
2018-05-12T22:34:29.594Z,18.42
2018-05-12T22:36:57.104Z,18.46
2018-05-12T22:39:24.607Z,18.51
2018-05-12T22:41:52.859Z,18.61
2018-05-12T22:44:20.356Z,18.65
2018-05-12T22:46:47.936Z,18.62
2018-05-12T22:49:15.423Z,18.63
2018-05-12T22:51:42.941Z,18.62
2018-05-12T22:54:10.430Z,18.66
2018-05-12T22:56:37.964Z,18.66
2018-05-12T22:59:05.467Z,18.65
2018-05-12T23:01:32.961Z,18.68
2018-05-12T23:04:00.485Z,18.64
2018-05-12T23:06:27.976Z,18.61
2018-05-12T23:08:55.469Z,18.50
2018-05-12T23:11:22.946Z,18.42
2018-05-12T23:13:50.470Z,18.34
2018-05-12T23:16:17.936Z,18.22
2018-05-12T23:18:45.423Z,18.15
2018-05-12T23:21:12.871Z,18.09
2018-05-12T23:23:40.337Z,18.11
2018-05-12T23:26:07.890Z,18.27
2018-05-12T23:28:35.417Z,18.16
2018-05-12T23:31:02.903Z,18.13
2018-05-12T23:33:30.465Z,18.06
2018-05-12T23:35:57.942Z,17.93
2018-05-12T23:38:25.442Z,17.86
2018-05-12T23:40:52.918Z,17.83
2018-05-12T23:43:20.384Z,17.86
2018-05-12T23:45:47.867Z,17.75
2018-05-12T23:48:15.340Z,17.64
2018-05-12T23:50:42.846Z,17.61
2018-05-12T23:53:10.396Z,17.54
2018-05-12T23:55:38.215Z,17.55
2018-05-12T23:58:05.696Z,17.58
